Brookhaven Weather

Current Time: 20:08 Zulu

HWV METARs

Local Time Temperature Dew Point Wind Direction Wind Speed Wind Gust Sky Vis.
8/20/2019 7:56:00 PM 29.4° c 15.0° c 190° 7 kt - CLR 10.0 sm
8/20/2019 6:56:00 PM 29.4° c 14.4° c 210° 8 kt - CLR 10.0 sm
8/20/2019 5:56:00 PM 30.0° c 15.6° c 210° 8 kt - CLR 10.0 sm
8/20/2019 4:56:00 PM 30.0° c 13.9° c 160° 4 kt - CLR 10.0 sm

ISP TAF:

KISP 201901Z 2019/2118 17009KT P6SM FEW050 BKN250 
FM210500 18004KT P6SM FEW035 BKN050 
FM210800 VRB04KT P6SM VCSH SCT015 SCT025 BKN040 
FM211300 18006KT P6SM OVC250
Weather data provided by aviationweather.gov. Pilots must verify weather before flying.